Time;durP1;ratioP1;P1;durP2;ratioP2;P2;SDS_P1;SDS_P2;PMS_P1;PMS_P2;Temp;Humidity;BMP_temperature;BMP_pressure;BME280_temperature;BME280_humidity;BME280_pressure;Samples;Min_cycle;Max_cycle;Signal;HPM_P1;HPM_P2
2023/11/12 00:00:43;;;;;;;17.20;11.45;;;;;;;5.38;62.49;99349.91;5050355;28;20460;-67
2023/11/12 00:03:08;;;;;;;17.00;11.45;;;;;;;5.32;62.79;99357.31;5038592;28;20112;-66
2023/11/12 00:05:34;;;;;;;19.58;10.68;;;;;;;5.26;62.98;99333.81;5050690;28;20073;-66
2023/11/12 00:08:00;;;;;;;16.77;11.48;;;;;;;5.38;63.12;99352.56;5050432;28;20340;-66
2023/11/12 00:10:26;;;;;;;14.52;10.38;;;;;;;5.38;62.99;99332.16;5051340;28;20029;-66
2023/11/12 00:12:52;;;;;;;15.38;10.63;;;;;;;5.39;62.84;99327.72;5049521;28;20029;-66
2023/11/12 00:15:18;;;;;;;17.42;10.57;;;;;;;5.45;62.81;99327.28;5054329;28;20044;-66
2023/11/12 00:17:44;;;;;;;18.00;11.02;;;;;;;5.44;62.55;99315.84;5053644;28;20029;-66
2023/11/12 00:20:14;;;;;;;18.02;11.90;;;;;;;5.36;63.16;99310.16;5055486;28;20111;-65
2023/11/12 00:22:43;;;;;;;15.70;11.63;;;;;;;5.37;63.08;99313.69;5055373;28;20060;-66
2023/11/12 00:25:12;;;;;;;18.05;11.48;;;;;;;5.43;63.26;99307.97;5055128;28;20476;-66
2023/11/12 00:27:41;;;;;;;17.85;11.65;;;;;;;5.37;63.16;99319.00;5036926;28;20041;-66
2023/11/12 00:30:09;;;;;;;18.10;12.55;;;;;;;5.19;63.69;99263.53;5034710;28;20101;-65
2023/11/12 00:32:35;;;;;;;17.45;12.00;;;;;;;5.39;63.01;99285.22;5035615;28;20353;-65
2023/11/12 00:35:00;;;;;;;12.52;8.82;;;;;;;5.59;62.75;99284.72;5035560;28;20044;-65
2023/11/12 00:37:26;;;;;;;20.45;12.25;;;;;;;5.51;62.56;99288.84;5035346;28;20033;-65
2023/11/12 00:39:51;;;;;;;18.58;12.45;;;;;;;5.39;63.22;99283.41;5035598;28;20061;-65
2023/11/12 00:42:17;;;;;;;16.95;12.90;;;;;;;5.37;63.64;99282.66;5035242;28;20033;-66
2023/11/12 00:44:43;;;;;;;16.92;12.20;;;;;;;5.38;63.45;99283.53;5035453;28;20044;-65
2023/11/12 00:47:09;;;;;;;18.17;12.45;;;;;;;5.35;63.97;99273.13;5036160;28;20041;-66
2023/11/12 00:49:34;;;;;;;17.30;11.77;;;;;;;5.60;63.09;99274.94;5035555;28;20091;-64
2023/11/12 00:52:00;;;;;;;19.25;12.77;;;;;;;5.46;63.99;99278.53;5035178;28;20112;-65
2023/11/12 00:54:25;;;;;;;18.00;11.95;;;;;;;5.47;63.99;99253.69;5034788;28;20025;-66
2023/11/12 00:56:51;;;;;;;16.13;12.10;;;;;;;5.44;63.88;99248.59;5035304;28;20033;-65
2023/11/12 00:59:16;;;;;;;19.20;12.43;;;;;;;5.53;63.77;99250.59;5035017;28;20109;-65
2023/11/12 01:01:43;;;;;;;17.77;12.18;;;;;;;5.54;63.65;99239.03;5045023;28;20043;-66
2023/11/12 01:04:11;;;;;;;17.85;12.57;;;;;;;5.52;63.81;99251.56;5053512;28;20501;-66
2023/11/12 01:06:37;;;;;;;18.08;12.82;;;;;;;5.44;63.93;99241.50;5052431;28;20051;-66
2023/11/12 01:09:03;;;;;;;18.42;12.65;;;;;;;5.43;63.85;99233.63;5054945;28;20037;-65
2023/11/12 01:11:29;;;;;;;18.13;12.02;;;;;;;5.60;63.91;99256.34;5055022;28;20456;-67
2023/11/12 01:13:55;;;;;;;19.55;13.27;;;;;;;5.56;64.17;99226.50;5054569;28;20021;-67
2023/11/12 01:16:21;;;;;;;22.45;14.50;;;;;;;5.47;64.37;99208.56;5054458;28;20033;-67
2023/11/12 01:18:46;;;;;;;21.00;13.13;;;;;;;5.41;64.81;99224.91;5055091;28;20040;-65
2023/11/12 01:21:12;;;;;;;22.80;13.88;;;;;;;5.39;65.39;99218.84;5053500;28;20043;-65
2023/11/12 01:23:38;;;;;;;19.73;13.30;;;;;;;5.28;66.05;99191.22;5040338;28;20053;-66
2023/11/12 01:26:04;;;;;;;19.17;12.90;;;;;;;5.34;65.92;99183.81;5035230;28;20029;-66
2023/11/12 01:28:31;;;;;;;19.05;12.32;;;;;;;5.12;66.31;99150.81;5034688;28;20033;-65
2023/11/12 01:31:00;;;;;;;20.73;12.77;;;;;;;5.43;65.92;99207.06;5034258;28;20506;-65
2023/11/12 01:33:28;;;;;;;19.92;11.15;;;;;;;5.57;65.34;99214.94;5034912;28;20060;-65
2023/11/12 01:35:55;;;;;;;21.30;13.43;;;;;;;5.55;65.78;99198.25;5034608;28;20029;-65
2023/11/12 01:38:20;;;;;;;20.25;13.35;;;;;;;5.43;66.72;99185.81;5034233;28;20449;-65
2023/11/12 01:40:47;;;;;;;19.02;12.80;;;;;;;5.13;67.69;99171.06;5035068;28;20037;-65
2023/11/12 01:43:15;;;;;;;20.05;12.35;;;;;;;5.30;67.82;99170.78;5043572;28;20033;-65
2023/11/12 01:45:40;;;;;;;18.55;11.90;;;;;;;5.44;67.22;99167.16;5054084;28;20029;-66
2023/11/12 01:48:08;;;;;;;15.98;10.57;;;;;;;5.31;67.94;99169.81;5054396;28;20090;-67
2023/11/12 01:50:35;;;;;;;22.30;13.55;;;;;;;5.25;68.66;99172.88;5039660;28;20056;-65
2023/11/12 01:53:01;;;;;;;20.05;13.57;;;;;;;4.86;68.22;99106.53;5033511;28;20353;-65
2023/11/12 01:55:28;;;;;;;16.60;11.43;;;;;;;5.29;68.35;99157.59;5033817;28;20036;-66
2023/11/12 01:57:53;;;;;;;18.52;11.70;;;;;;;5.34;68.48;99165.25;5032984;28;20451;-65
2023/11/12 02:00:20;;;;;;;18.02;10.48;;;;;;;5.22;68.21;99138.59;5039285;28;20025;-66
2023/11/12 02:02:46;;;;;;;21.25;13.43;;;;;;;5.21;69.07;99152.81;5034503;28;20061;-66
2023/11/12 02:05:11;;;;;;;14.00;8.63;;;;;;;5.39;68.66;99173.72;5034684;28;20122;-66
2023/11/12 02:07:48;;;;;;;24.02;14.15;;;;;;;5.24;69.19;99149.94;5033825;28;20097;-65
2023/11/12 02:10:16;;;;;;;22.65;14.43;;;;;;;5.17;69.53;99148.69;5034972;28;20477;-66
2023/11/12 02:12:46;;;;;;;22.38;15.00;;;;;;;5.24;69.35;99135.84;5034294;28;20333;-65
2023/11/12 02:15:14;;;;;;;24.27;15.45;;;;;;;5.11;70.03;99123.41;5033326;28;20120;-66
2023/11/12 02:17:44;;;;;;;22.73;14.57;;;;;;;5.22;69.34;99120.00;5033347;28;20033;-66
2023/11/12 02:20:14;;;;;;;21.77;15.30;;;;;;;5.24;69.80;99099.50;5033867;28;20037;-65
2023/11/12 02:22:41;;;;;;;21.33;12.18;;;;;;;5.30;69.43;99104.41;5034151;28;20037;-67
2023/11/12 02:25:07;;;;;;;24.27;14.30;;;;;;;5.16;69.12;99062.91;5033337;28;20123;-67
2023/11/12 02:27:33;;;;;;;23.70;16.13;;;;;;;5.31;69.34;99095.50;5033281;28;20403;-65
2023/11/12 02:29:59;;;;;;;22.92;15.43;;;;;;;5.28;69.41;99082.41;5033456;28;20025;-66
2023/11/12 02:32:32;;;;;;;20.98;13.38;;;;;;;5.13;69.45;99057.81;5034989;28;20347;-67
2023/11/12 02:35:00;;;;;;;24.38;16.00;;;;;;;5.43;69.00;99069.88;5040145;28;20025;-67
2023/11/12 02:37:26;;;;;;;24.55;16.38;;;;;;;5.32;69.75;99064.47;5052988;28;20216;-66
2023/11/12 02:39:52;;;;;;;24.98;16.38;;;;;;;5.28;69.79;99071.78;5053327;28;20128;-66
2023/11/12 02:42:19;;;;;;;25.17;15.98;;;;;;;5.26;70.09;99035.72;5053439;28;20120;-67
2023/11/12 02:44:44;;;;;;;23.95;16.92;;;;;;;5.32;69.88;99040.59;5051076;28;20047;-65
2023/11/12 02:47:10;;;;;;;25.58;16.90;;;;;;;5.23;70.46;99033.28;5052051;28;20044;-66
2023/11/12 02:49:52;;;;;;;24.35;16.60;;;;;;;5.21;70.84;99033.38;5052789;28;20057;-65
2023/11/12 02:52:18;;;;;;;24.60;17.08;;;;;;;5.32;70.25;99014.91;5052900;28;20428;-66
2023/11/12 02:54:43;;;;;;;23.73;14.77;;;;;;;5.31;69.52;98988.47;5051122;28;20025;-67
2023/11/12 02:57:10;;;;;;;24.10;15.45;;;;;;;5.37;69.54;99001.28;5051982;28;20043;-67
2023/11/12 02:59:35;;;;;;;21.50;14.93;;;;;;;5.39;69.58;98991.41;5051023;28;20036;-65
2023/11/12 03:02:01;;;;;;;23.45;15.13;;;;;;;5.28;70.06;98981.56;5052499;28;20040;-65
2023/11/12 03:04:27;;;;;;;22.75;16.02;;;;;;;5.08;70.63;98953.81;5052666;28;20115;-66
2023/11/12 03:06:53;;;;;;;23.38;16.13;;;;;;;5.32;69.61;98969.78;5051646;28;20408;-65
2023/11/12 03:09:19;;;;;;;21.75;14.70;;;;;;;5.07;69.63;98944.16;5052534;28;20108;-65
2023/11/12 03:11:44;;;;;;;20.27;13.70;;;;;;;5.29;70.01;98979.75;5050845;28;20091;-65
2023/11/12 03:14:11;;;;;;;20.30;14.25;;;;;;;5.21;70.59;98964.38;5051578;28;20444;-66
2023/11/12 03:16:36;;;;;;;18.92;13.90;;;;;;;5.27;69.76;98963.09;5051543;28;20098;-66
2023/11/12 03:19:02;;;;;;;16.60;11.45;;;;;;;5.17;69.25;98920.47;5052361;28;20033;-66
2023/11/12 03:21:28;;;;;;;19.23;13.95;;;;;;;5.27;69.27;98961.28;5052874;28;20116;-65
2023/11/12 03:23:55;;;;;;;18.63;12.93;;;;;;;5.22;69.82;98944.03;5052245;28;20041;-66
2023/11/12 03:26:21;;;;;;;16.67;10.48;;;;;;;5.15;69.29;98919.72;5051961;28;20463;-66
2023/11/12 03:28:47;;;;;;;15.60;10.35;;;;;;;5.05;68.92;98900.97;5039256;28;20049;-66
2023/11/12 03:31:12;;;;;;;17.13;12.45;;;;;;;5.12;69.97;98933.22;5034733;28;20107;-66
2023/11/12 03:33:38;;;;;;;18.10;12.48;;;;;;;5.05;70.34;98927.50;5033245;28;20033;-66
2023/11/12 03:36:04;;;;;;;18.30;12.80;;;;;;;5.11;70.00;98921.75;5032932;28;20116;-65
2023/11/12 03:38:33;;;;;;;15.77;11.77;;;;;;;5.12;69.95;98904.03;5033778;28;20026;-65
2023/11/12 03:40:58;;;;;;;17.73;12.30;;;;;;;5.21;69.54;98932.53;5032110;28;20053;-66
2023/11/12 03:43:24;;;;;;;18.30;12.63;;;;;;;4.93;69.72;98889.44;5031911;28;20122;-66
2023/11/12 03:45:49;;;;;;;17.65;11.85;;;;;;;5.17;69.92;98920.47;5031269;28;20055;-65
2023/11/12 03:48:15;;;;;;;13.18;8.38;;;;;;;5.35;69.14;98944.81;5032928;28;20360;-66
2023/11/12 03:50:42;;;;;;;19.15;11.55;;;;;;;5.13;68.77;98884.50;5031671;28;20397;-65
2023/11/12 03:53:07;;;;;;;17.13;11.75;;;;;;;5.29;69.39;98913.41;5031994;28;20033;-66
2023/11/12 03:55:33;;;;;;;16.77;12.18;;;;;;;5.14;69.91;98900.28;5033231;28;20426;-65
2023/11/12 03:57:58;;;;;;;16.38;10.18;;;;;;;5.28;69.46;98901.09;5032301;28;20029;-66
2023/11/12 04:00:24;;;;;;;19.13;12.63;;;;;;;5.29;69.39;98903.63;5032261;28;20030;-66
2023/11/12 04:02:50;;;;;;;15.00;8.82;;;;;;;5.44;68.21;98888.41;5031903;28;20034;-67
2023/11/12 04:05:16;;;;;;;18.05;11.88;;;;;;;5.20;69.48;98883.09;5033189;28;20030;-65
2023/11/12 04:07:42;;;;;;;14.57;10.10;;;;;;;5.21;69.40;98874.16;5031509;28;20102;-66
2023/11/12 04:10:10;;;;;;;15.65;11.07;;;;;;;5.15;69.62;98875.44;5032294;28;20717;-66
2023/11/12 04:12:36;;;;;;;15.68;11.05;;;;;;;5.17;69.52;98880.66;5033020;28;20474;-66
2023/11/12 04:15:04;;;;;;;15.85;10.68;;;;;;;5.04;69.92;98856.84;5032045;28;20034;-66
2023/11/12 04:17:31;;;;;;;15.05;10.82;;;;;;;5.27;68.78;98872.88;5032326;28;20040;-67
2023/11/12 04:19:58;;;;;;;14.45;10.73;;;;;;;4.91;68.92;98822.41;5031814;28;20025;-67
2023/11/12 04:22:24;;;;;;;13.73;10.27;;;;;;;4.95;69.04;98821.22;5030923;28;20035;-65
2023/11/12 04:24:53;;;;;;;15.43;10.40;;;;;;;5.17;69.10;98862.09;5031779;28;20050;-67
2023/11/12 04:27:19;;;;;;;13.82;9.77;;;;;;;5.32;68.17;98882.19;5033253;28;20063;-65
2023/11/12 04:29:47;;;;;;;14.05;8.95;;;;;;;5.24;68.71;98852.69;5032343;28;20038;-65
2023/11/12 04:32:12;;;;;;;14.25;10.25;;;;;;;5.14;68.54;98836.59;5032820;28;20113;-65
2023/11/12 04:34:38;;;;;;;10.75;7.53;;;;;;;5.24;68.71;98839.44;5032645;28;20116;-66
2023/11/12 04:37:04;;;;;;;13.80;9.38;;;;;;;5.20;68.95;98821.22;5032010;28;20030;-65
2023/11/12 04:39:30;;;;;;;12.63;9.45;;;;;;;5.14;68.77;98810.06;5031472;28;20033;-65
2023/11/12 04:41:56;;;;;;;13.10;9.27;;;;;;;5.19;69.15;98811.56;5031621;28;20030;-66
2023/11/12 04:44:21;;;;;;;12.68;9.13;;;;;;;5.13;69.11;98812.84;5031715;28;20057;-66
2023/11/12 04:46:48;;;;;;;12.23;7.95;;;;;;;5.17;69.13;98811.66;5031694;28;20464;-66
2023/11/12 04:49:13;;;;;;;11.57;8.00;;;;;;;4.78;69.22;98748.19;5032428;28;20037;-67
2023/11/12 04:51:39;;;;;;;11.63;7.80;;;;;;;5.16;68.80;98796.69;5031608;28;20041;-66
2023/11/12 04:54:05;;;;;;;10.15;7.35;;;;;;;4.71;68.47;98697.41;5032460;28;20121;-65
2023/11/12 04:56:30;;;;;;;10.18;7.82;;;;;;;5.06;69.40;98780.63;5031481;28;20041;-66
2023/11/12 04:58:56;;;;;;;10.00;7.38;;;;;;;5.16;69.08;98792.22;5031404;28;20120;-65
2023/11/12 05:01:22;;;;;;;8.98;7.32;;;;;;;5.08;69.93;98785.81;5032644;28;20091;-65
2023/11/12 05:03:47;;;;;;;9.25;7.38;;;;;;;5.09;69.76;98811.41;5035365;28;20072;-66
2023/11/12 05:06:14;;;;;;;10.23;6.55;;;;;;;5.22;68.95;98811.31;5036425;28;20025;-67
2023/11/12 05:08:41;;;;;;;14.30;7.90;;;;;;;5.28;68.84;98785.16;5047540;28;20045;-66
2023/11/12 05:11:08;;;;;;;10.82;7.72;;;;;;;5.25;68.66;98795.16;5034679;28;20033;-66
2023/11/12 05:13:36;;;;;;;8.65;6.35;;;;;;;5.29;68.32;98792.16;5035833;28;20056;-65
2023/11/12 05:16:02;;;;;;;11.85;8.80;;;;;;;5.07;69.27;98761.09;5035016;28;20033;-66
2023/11/12 05:18:29;;;;;;;11.52;8.48;;;;;;;4.94;69.97;98763.81;5035691;28;20025;-66
2023/11/12 05:20:55;;;;;;;10.35;6.75;;;;;;;5.24;69.01;98764.28;5033584;28;20405;-66
2023/11/12 05:23:21;;;;;;;12.20;8.60;;;;;;;5.12;68.96;98768.72;5034479;28;20041;-71
2023/11/12 05:25:46;;;;;;;14.20;8.93;;;;;;;5.19;68.82;98764.63;5052078;28;20033;-71
2023/11/12 05:28:12;;;;;;;12.18;7.97;;;;;;;5.20;68.90;98760.19;5075510;28;20114;-76
2023/11/12 05:30:38;;;;;;;12.43;8.52;;;;;;;5.13;69.19;98757.13;5076943;28;20092;-70
2023/11/12 05:33:04;;;;;;;11.77;8.23;;;;;;;5.00;70.05;98750.09;5076794;28;20017;-75
2023/11/12 05:35:30;;;;;;;12.55;9.30;;;;;;;5.15;69.12;98741.94;5062556;28;20442;-63
2023/11/12 05:37:56;;;;;;;15.07;9.77;;;;;;;5.15;69.24;98731.34;5053259;28;20039;-61
2023/11/12 05:40:22;;;;;;;10.45;6.93;;;;;;;5.20;68.98;98731.81;5054694;28;20040;-61
2023/11/12 05:42:48;;;;;;;15.35;9.15;;;;;;;5.18;68.96;98725.78;5048538;28;20465;-66
2023/11/12 05:45:13;;;;;;;13.65;9.27;;;;;;;5.13;69.60;98728.78;5035554;28;20457;-64
2023/11/12 05:47:39;;;;;;;11.02;8.18;;;;;;;5.35;68.61;98736.94;5034060;28;20040;-66
2023/11/12 05:50:06;;;;;;;11.85;7.72;;;;;;;5.34;68.21;98700.75;5034306;28;20029;-66
2023/11/12 05:52:32;;;;;;;13.50;8.68;;;;;;;5.35;68.46;98690.00;5034726;28;20044;-65
2023/11/12 05:54:58;;;;;;;11.85;8.25;;;;;;;5.24;68.70;98682.84;5034229;28;20037;-67
2023/11/12 05:57:23;;;;;;;12.80;8.82;;;;;;;5.20;68.65;98675.25;5034471;28;20504;-67
2023/11/12 05:59:49;;;;;;;11.20;8.27;;;;;;;5.21;68.63;98687.56;5034265;28;20025;-68
2023/11/12 06:02:15;;;;;;;13.60;7.97;;;;;;;5.36;68.36;98686.38;5035250;28;20435;-65
2023/11/12 06:04:40;;;;;;;14.25;9.43;;;;;;;5.31;67.97;98677.91;5034104;28;20091;-66
2023/11/12 06:07:06;;;;;;;13.88;8.95;;;;;;;5.30;68.24;98661.16;5033619;28;20099;-65
2023/11/12 06:09:32;;;;;;;12.85;9.02;;;;;;;5.22;68.69;98662.72;5033487;28;20463;-67
2023/11/12 06:11:57;;;;;;;12.27;9.18;;;;;;;5.20;68.47;98648.72;5033870;28;20033;-65
2023/11/12 06:14:23;;;;;;;13.40;9.63;;;;;;;5.28;68.14;98647.16;5034242;28;20033;-64
2023/11/12 06:16:49;;;;;;;12.60;8.52;;;;;;;5.23;68.39;98644.00;5034379;28;20463;-65
2023/11/12 06:19:14;;;;;;;15.82;8.32;;;;;;;5.28;68.07;98639.19;5033587;28;20091;-67
2023/11/12 06:21:40;;;;;;;10.18;6.95;;;;;;;5.43;67.76;98652.22;5044900;28;20034;-67
2023/11/12 06:24:06;;;;;;;13.40;7.72;;;;;;;5.39;67.29;98627.72;5042235;28;20474;-66
2023/11/12 06:26:35;;;;;;;13.27;8.98;;;;;;;5.28;67.96;98631.22;5040376;28;20041;-67
2023/11/12 06:29:01;;;;;;;13.73;8.68;;;;;;;5.23;68.66;98619.28;5043799;28;20026;-67
2023/11/12 06:31:27;;;;;;;10.40;6.63;;;;;;;5.44;67.38;98622.06;5042160;28;20075;-66
2023/11/12 06:33:52;;;;;;;16.00;8.13;;;;;;;5.33;67.34;98617.59;5043860;28;20444;-66
2023/11/12 06:36:19;;;;;;;13.23;8.15;;;;;;;5.32;67.68;98611.47;5042151;28;20040;-66
2023/11/12 06:38:45;;;;;;;12.95;8.85;;;;;;;5.27;68.03;98608.31;5043641;28;20396;-66
2023/11/12 06:41:12;;;;;;;18.48;8.55;;;;;;;5.10;67.27;98558.38;5042680;28;20033;-66
2023/11/12 06:43:38;;;;;;;12.50;6.78;;;;;;;5.44;67.46;98603.47;5042958;28;20052;-66
2023/11/12 06:46:05;;;;;;;12.13;8.52;;;;;;;5.37;67.10;98594.34;5041721;28;20069;-67
2023/11/12 06:48:31;;;;;;;10.38;7.13;;;;;;;5.47;66.89;98582.00;5041756;28;20025;-69
2023/11/12 06:50:56;;;;;;;9.70;5.95;;;;;;;5.63;66.53;98602.84;5042536;28;20368;-63
2023/11/12 06:53:22;;;;;;;8.88;5.97;;;;;;;5.57;66.21;98579.47;5041727;28;20037;-68
2023/11/12 06:55:48;;;;;;;12.52;7.57;;;;;;;5.43;66.88;98559.31;5043489;28;20044;-67
2023/11/12 06:58:13;;;;;;;9.50;6.75;;;;;;;5.46;66.72;98556.44;5042029;28;20029;-67
2023/11/12 07:00:39;;;;;;;12.70;7.88;;;;;;;5.38;67.33;98556.19;5042101;28;20040;-67
2023/11/12 07:03:04;;;;;;;9.75;6.90;;;;;;;5.35;67.25;98565.25;5041206;28;20029;-65
2023/11/12 07:05:32;;;;;;;8.55;5.70;;;;;;;5.44;67.15;98543.28;5043258;28;20356;-65
2023/11/12 07:07:58;;;;;;;12.38;7.32;;;;;;;5.37;67.69;98543.91;5042524;28;20074;-66
2023/11/12 07:10:24;;;;;;;9.63;6.68;;;;;;;5.41;67.90;98556.78;5041677;28;20469;-66
2023/11/12 07:12:49;;;;;;;11.07;7.82;;;;;;;5.19;68.45;98536.44;5040688;28;20025;-66
2023/11/12 07:15:15;;;;;;;11.40;7.38;;;;;;;5.21;68.72;98531.84;5040831;28;20359;-66
2023/11/12 07:17:41;;;;;;;9.65;6.38;;;;;;;5.39;68.32;98540.13;5036137;28;20098;-68
2023/11/12 07:20:09;;;;;;;8.38;5.68;;;;;;;5.26;68.34;98527.00;5046082;28;20528;-67
2023/11/12 07:22:36;;;;;;;9.38;5.25;;;;;;;5.16;68.71;98553.41;5032433;28;20029;-67
2023/11/12 07:25:04;;;;;;;9.02;6.15;;;;;;;5.32;68.12;98541.59;5031055;28;20049;-66
2023/11/12 07:27:31;;;;;;;9.23;7.03;;;;;;;5.21;68.92;98518.56;5039263;28;20049;-64
2023/11/12 07:29:58;;;;;;;8.82;5.80;;;;;;;5.21;68.65;98523.06;5040672;28;20394;-69
2023/11/12 07:32:23;;;;;;;10.88;7.30;;;;;;;5.01;70.12;98515.69;5040461;28;20340;-70
2023/11/12 07:34:49;;;;;;;12.30;7.00;;;;;;;4.95;70.63;98508.22;5043316;28;20021;-69
2023/11/12 07:37:15;;;;;;;8.55;5.50;;;;;;;5.12;69.95;98519.31;5041620;28;20171;-69
2023/11/12 07:39:40;;;;;;;8.77;5.43;;;;;;;4.99;69.28;98514.97;5038557;28;20029;-66
2023/11/12 07:42:09;;;;;;;10.40;7.00;;;;;;;4.90;70.39;98515.69;5038102;28;20036;-65
2023/11/12 07:44:36;;;;;;;11.18;6.40;;;;;;;5.00;69.87;98491.94;5038658;28;20025;-65
2023/11/12 07:47:04;;;;;;;12.07;7.05;;;;;;;4.85;70.77;98486.03;5040286;28;20029;-65
2023/11/12 07:49:31;;;;;;;11.55;6.45;;;;;;;4.94;70.40;98468.53;5052267;28;20414;-60
2023/11/12 07:51:56;;;;;;;9.63;6.32;;;;;;;4.87;70.89;98497.38;5043669;28;20121;-66
2023/11/12 07:54:23;;;;;;;6.15;4.20;;;;;;;5.05;69.89;98486.25;5040617;28;20108;-66
2023/11/12 07:56:49;;;;;;;7.28;5.70;;;;;;;4.88;70.92;98497.22;5043289;28;20028;-67
2023/11/12 07:59:15;;;;;;;6.32;3.90;;;;;;;4.91;70.09;98472.28;5038559;28;20048;-65
2023/11/12 08:01:41;;;;;;;9.27;6.43;;;;;;;4.67;71.16;98457.34;5039116;28;20402;-67
2023/11/12 08:04:11;;;;;;;9.00;6.53;;;;;;;4.57;72.74;98483.72;5044171;28;20082;-65
2023/11/12 08:06:37;;;;;;;9.35;6.65;;;;;;;4.69;72.09;98465.16;5033743;28;20363;-66
2023/11/12 08:09:03;;;;;;;7.07;4.88;;;;;;;4.84;71.48;98482.53;5041866;28;20025;-66
2023/11/12 08:11:29;;;;;;;8.27;5.45;;;;;;;4.66;72.00;98468.91;5038441;28;20053;-66
2023/11/12 08:13:54;;;;;;;7.57;6.00;;;;;;;4.50;72.65;98460.47;5040622;28;20105;-68
2023/11/12 08:16:20;;;;;;;8.07;5.40;;;;;;;4.57;72.00;98440.47;5041561;28;20030;-66
2023/11/12 08:18:45;;;;;;;9.02;5.78;;;;;;;4.43;72.61;98439.75;5039193;28;20391;-70
2023/11/12 08:21:12;;;;;;;7.72;4.90;;;;;;;4.67;71.82;98441.44;5034457;28;20040;-67
2023/11/12 08:23:38;;;;;;;7.88;5.55;;;;;;;4.48;73.22;98419.97;5031945;28;20056;-68
2023/11/12 08:26:04;;;;;;;8.43;5.72;;;;;;;4.34;73.72;98403.38;5038037;28;20045;-69
2023/11/12 08:28:32;;;;;;;11.15;6.28;;;;;;;4.50;73.41;98410.09;5052309;28;20041;-66
2023/11/12 08:30:57;;;;;;;7.28;5.70;;;;;;;4.53;73.50;98405.41;5050687;28;20033;-67
2023/11/12 08:33:23;;;;;;;6.85;4.78;;;;;;;4.56;72.54;98399.00;5048770;28;20414;-67
2023/11/12 08:35:50;;;;;;;6.03;4.45;;;;;;;4.49;73.44;98430.47;5051234;28;20044;-67
2023/11/12 08:38:16;;;;;;;10.13;5.72;;;;;;;4.52;72.88;98400.22;5055362;28;20063;-65
2023/11/12 08:40:43;;;;;;;9.20;5.63;;;;;;;4.35;73.83;98401.53;5055373;28;20053;-65
2023/11/12 08:43:13;;;;;;;7.57;4.93;;;;;;;4.40;74.15;98402.03;5055050;28;20024;-66
2023/11/12 08:45:39;;;;;;;8.05;5.03;;;;;;;4.42;73.77;98427.44;5055321;28;20051;-67
2023/11/12 08:48:04;;;;;;;7.80;4.93;;;;;;;4.47;73.39;98402.41;5055015;28;20039;-66
2023/11/12 08:50:30;;;;;;;8.95;5.57;;;;;;;4.53;74.02;98413.38;5053318;28;20363;-70
2023/11/12 08:52:56;;;;;;;6.80;4.45;;;;;;;4.55;73.40;98394.66;5030641;28;20033;-69
2023/11/12 08:55:22;;;;;;;10.73;5.70;;;;;;;4.40;74.51;98384.34;5037418;28;20406;-70
2023/11/12 08:57:48;;;;;;;7.75;4.93;;;;;;;4.27;73.32;98352.66;5034913;28;20125;-70
2023/11/12 09:00:14;;;;;;;9.73;5.95;;;;;;;4.33;74.75;98361.91;5035310;28;20031;-65
2023/11/12 09:02:40;;;;;;;7.85;4.28;;;;;;;4.47;73.92;98370.59;5035131;28;20112;-66
2023/11/12 09:05:06;;;;;;;6.65;4.80;;;;;;;4.51;73.70;98372.03;5038955;28;20022;-68
2023/11/12 09:07:32;;;;;;;4.43;3.08;;;;;;;4.52;73.73;98347.22;5055509;28;20044;-67
2023/11/12 09:09:57;;;;;;;8.05;5.50;;;;;;;4.40;74.14;98343.72;5054996;28;20096;-68
2023/11/12 09:12:23;;;;;;;6.20;4.25;;;;;;;4.38;73.75;98341.22;5054770;28;20025;-68
2023/11/12 09:14:49;;;;;;;10.63;4.97;;;;;;;4.35;74.24;98336.16;5047634;28;20448;-68
2023/11/12 09:17:15;;;;;;;7.03;4.80;;;;;;;4.43;74.28;98330.22;5035018;28;20029;-67
2023/11/12 09:19:45;;;;;;;8.93;5.07;;;;;;;4.47;74.40;98362.63;5035941;28;20108;-69
2023/11/12 09:22:10;;;;;;;7.10;4.53;;;;;;;4.49;74.64;98324.47;5052755;28;20396;-68
2023/11/12 09:24:36;;;;;;;6.72;4.68;;;;;;;4.51;74.19;98316.38;5054934;28;20053;-65
2023/11/12 09:27:02;;;;;;;8.73;5.10;;;;;;;4.37;74.94;98306.88;5054917;28;20120;-66
2023/11/12 09:29:28;;;;;;;9.45;4.50;;;;;;;4.38;75.20;98320.00;5054295;28;20115;-68
2023/11/12 09:31:54;;;;;;;5.93;4.18;;;;;;;4.65;73.78;98325.88;5054428;28;20327;-69
2023/11/12 09:34:20;;;;;;;10.23;4.82;;;;;;;4.57;74.02;98299.97;5053213;28;20021;-68
2023/11/12 09:36:45;;;;;;;9.88;5.05;;;;;;;4.52;74.17;98286.25;5054537;28;20033;-68
2023/11/12 09:39:13;;;;;;;6.53;4.80;;;;;;;4.42;75.08;98289.66;5052798;28;20514;-69
2023/11/12 09:41:46;;;;;;;8.00;5.20;;;;;;;4.65;74.47;98294.91;5053626;28;20459;-69
2023/11/12 09:44:16;;;;;;;7.28;5.40;;;;;;;4.50;74.50;98282.88;5051919;28;20021;-67
2023/11/12 09:46:43;;;;;;;6.75;4.97;;;;;;;4.26;74.82;98234.41;5051735;28;20044;-67
2023/11/12 09:49:10;;;;;;;7.25;5.50;;;;;;;4.47;74.79;98259.28;5052204;28;20056;-69
2023/11/12 09:51:40;;;;;;;6.68;4.57;;;;;;;4.48;75.12;98261.81;5051102;28;20078;-67
2023/11/12 09:54:08;;;;;;;7.63;4.95;;;;;;;4.58;74.91;98246.00;5051246;28;20124;-68
2023/11/12 09:56:35;;;;;;;7.85;4.32;;;;;;;4.55;74.77;98256.84;5051957;28;20025;-68
2023/11/12 09:59:01;;;;;;;5.05;3.40;;;;;;;4.76;73.97;98242.81;5041494;28;20033;-68
2023/11/12 10:01:26;;;;;;;7.35;4.28;;;;;;;4.71;74.34;98267.91;5035215;28;20037;-69
2023/11/12 10:03:52;;;;;;;5.15;4.40;;;;;;;4.67;74.31;98250.56;5035248;28;20410;-69
2023/11/12 10:06:20;;;;;;;8.40;3.92;;;;;;;4.94;73.66;98248.41;5034145;28;20029;-68
2023/11/12 10:08:46;;;;;;;6.15;4.07;;;;;;;4.91;73.49;98223.00;5034005;28;20030;-68
2023/11/12 10:11:26;;;;;;;5.60;4.13;;;;;;;4.98;73.51;98213.53;5034047;28;20029;-68
2023/11/12 10:13:51;;;;;;;6.03;3.58;;;;;;;5.10;73.19;98221.47;5035472;28;20083;-69
2023/11/12 10:16:25;;;;;;;5.13;4.18;;;;;;;5.08;73.63;98226.06;5033740;28;20038;-68
2023/11/12 10:19:05;;;;;;;4.80;3.47;;;;;;;5.03;73.85;98215.81;5047910;28;20040;-69
2023/11/12 10:21:31;;;;;;;5.80;4.25;;;;;;;4.95;73.95;98189.09;5053723;28;20040;-69
2023/11/12 10:24:05;;;;;;;5.47;4.20;;;;;;;5.13;73.88;98198.16;5053558;28;20383;-68
2023/11/12 10:26:38;;;;;;;5.78;4.30;;;;;;;4.97;74.82;98185.34;5053414;28;20048;-68
2023/11/12 10:29:05;;;;;;;7.35;3.92;;;;;;;4.98;74.88;98175.59;5047172;28;20025;-68
2023/11/12 10:31:38;;;;;;;6.07;4.40;;;;;;;4.98;75.05;98172.94;5032467;28;20132;-68
2023/11/12 10:34:03;;;;;;;6.97;4.53;;;;;;;5.01;74.66;98157.59;5033413;28;20452;-69
2023/11/12 10:36:29;;;;;;;5.40;4.13;;;;;;;5.03;74.46;98176.84;5033439;28;20021;-68
2023/11/12 10:39:03;;;;;;;5.63;3.80;;;;;;;5.01;74.46;98136.38;5049935;28;20025;-69
2023/11/12 10:41:39;;;;;;;5.18;4.18;;;;;;;5.02;75.35;98161.09;5053044;28;20029;-68
2023/11/12 10:44:06;;;;;;;7.00;3.75;;;;;;;5.20;73.95;98150.72;5053067;28;20036;-68
2023/11/12 10:46:38;;;;;;;5.35;4.28;;;;;;;5.17;74.09;98146.50;5053137;28;20124;-69
2023/11/12 10:49:08;;;;;;;4.55;3.17;;;;;;;4.92;73.67;98105.34;5053291;28;20028;-69
2023/11/12 10:51:36;;;;;;;7.00;4.07;;;;;;;5.01;74.73;98139.00;5051094;28;20116;-68
2023/11/12 10:54:02;;;;;;;5.18;4.10;;;;;;;5.10;74.87;98139.22;5051475;28;20383;-69
2023/11/12 10:56:29;;;;;;;4.95;4.05;;;;;;;5.09;74.80;98130.41;5048487;28;20064;-67
2023/11/12 10:58:56;;;;;;;7.57;4.18;;;;;;;5.03;74.89;98133.59;5032983;28;20029;-69
2023/11/12 11:01:23;;;;;;;7.50;3.97;;;;;;;5.13;74.87;98131.81;5033211;28;20108;-68
2023/11/12 11:03:50;;;;;;;7.43;4.20;;;;;;;5.11;74.78;98125.00;5033143;28;20075;-70
2023/11/12 11:06:17;;;;;;;5.55;4.18;;;;;;;5.02;75.49;98114.16;5032869;28;20091;-70
2023/11/12 11:08:42;;;;;;;6.10;3.67;;;;;;;5.15;74.41;98110.47;5032936;28;20033;-69
2023/11/12 11:11:09;;;;;;;3.97;2.92;;;;;;;5.17;74.64;98119.16;5035299;28;20032;-67
2023/11/12 11:13:35;;;;;;;4.38;3.55;;;;;;;4.87;74.58;98065.13;5033565;28;20398;-71
2023/11/12 11:16:01;;;;;;;5.43;2.75;;;;;;;5.23;74.78;98100.03;5036585;28;20382;-67
2023/11/12 11:18:30;;;;;;;3.88;2.88;;;;;;;5.40;74.14;98101.22;5052578;28;20043;-68
2023/11/12 11:21:38;;;;;;;6.38;3.70;;;;;;;5.30;74.07;98098.56;5052344;28;20033;-67
2023/11/12 11:23:57;;;;;;;5.40;4.03;;;;;;;5.18;74.59;98086.34;5053033;28;20045;-69
2023/11/12 11:26:39;;;;;;;4.50;3.70;;;;;;;5.27;74.44;98077.56;5043326;28;20041;-70
2023/11/12 11:29:13;;;;;;;9.07;4.45;;;;;;;5.32;74.57;98075.38;5048829;28;20049;-65
2023/11/12 11:31:55;;;;;;;5.72;3.88;;;;;;;5.44;74.69;98070.81;5052591;28;20112;-70